sensor_id;sensor_type;location;lat;lon;timestamp;temperature;humidity
34833;DHT22;55941;50.800;4.342;2023-06-10T00:01:49;23.80;72.20
34833;DHT22;55941;50.800;4.342;2023-06-10T00:04:15;23.80;72.10
34833;DHT22;55941;50.800;4.342;2023-06-10T00:06:45;23.70;72.50
34833;DHT22;55941;50.800;4.342;2023-06-10T00:09:13;23.60;73.20
34833;DHT22;55941;50.800;4.342;2023-06-10T00:11:40;23.60;73.10
34833;DHT22;55941;50.800;4.342;2023-06-10T00:14:07;23.50;73.40
34833;DHT22;55941;50.800;4.342;2023-06-10T00:16:33;23.60;73.50
34833;DHT22;55941;50.800;4.342;2023-06-10T00:19:00;23.60;73.40
34833;DHT22;55941;50.800;4.342;2023-06-10T00:21:27;23.50;73.70
34833;DHT22;55941;50.800;4.342;2023-06-10T00:23:52;23.50;74.10
34833;DHT22;55941;50.800;4.342;2023-06-10T00:26:18;23.40;74.50
34833;DHT22;55941;50.800;4.342;2023-06-10T00:28:44;23.40;74.70
34833;DHT22;55941;50.800;4.342;2023-06-10T00:31:11;23.30;74.80
34833;DHT22;55941;50.800;4.342;2023-06-10T00:33:37;23.20;74.90
34833;DHT22;55941;50.800;4.342;2023-06-10T00:36:02;23.30;74.80
34833;DHT22;55941;50.800;4.342;2023-06-10T00:38:29;23.20;75.10
34833;DHT22;55941;50.800;4.342;2023-06-10T00:40:55;23.20;75.30
34833;DHT22;55941;50.800;4.342;2023-06-10T00:43:20;23.20;75.40
34833;DHT22;55941;50.800;4.342;2023-06-10T00:45:46;23.20;75.60
34833;DHT22;55941;50.800;4.342;2023-06-10T00:48:12;23.10;76.00
34833;DHT22;55941;50.800;4.342;2023-06-10T00:50:37;23.10;76.10
34833;DHT22;55941;50.800;4.342;2023-06-10T00:53:05;23.00;76.50
34833;DHT22;55941;50.800;4.342;2023-06-10T00:55:32;23.00;76.50
34833;DHT22;55941;50.800;4.342;2023-06-10T00:57:58;23.00;76.70
34833;DHT22;55941;50.800;4.342;2023-06-10T01:00:24;22.90;76.70
34833;DHT22;55941;50.800;4.342;2023-06-10T01:02:49;22.90;76.80
34833;DHT22;55941;50.800;4.342;2023-06-10T01:05:17;22.90;77.10
34833;DHT22;55941;50.800;4.342;2023-06-10T01:10:57;22.70;77.90
34833;DHT22;55941;50.800;4.342;2023-06-10T01:13:25;22.70;77.60
34833;DHT22;55941;50.800;4.342;2023-06-10T01:15:56;22.70;77.80
34833;DHT22;55941;50.800;4.342;2023-06-10T01:18:23;22.70;78.00
34833;DHT22;55941;50.800;4.342;2023-06-10T01:20:50;22.70;77.80
34833;DHT22;55941;50.800;4.342;2023-06-10T01:23:17;22.70;78.20
34833;DHT22;55941;50.800;4.342;2023-06-10T01:25:53;22.70;78.40
34833;DHT22;55941;50.800;4.342;2023-06-10T01:34:16;22.60;78.80
34833;DHT22;55941;50.800;4.342;2023-06-10T01:36:46;22.50;78.50
34833;DHT22;55941;50.800;4.342;2023-06-10T01:39:15;22.50;78.40
34833;DHT22;55941;50.800;4.342;2023-06-10T01:41:43;22.50;78.20
34833;DHT22;55941;50.800;4.342;2023-06-10T01:44:10;22.50;78.40
34833;DHT22;55941;50.800;4.342;2023-06-10T01:46:36;22.40;78.50
34833;DHT22;55941;50.800;4.342;2023-06-10T01:49:02;22.30;79.30
34833;DHT22;55941;50.800;4.342;2023-06-10T01:51:27;22.40;79.50
34833;DHT22;55941;50.800;4.342;2023-06-10T01:53:53;22.40;78.60
34833;DHT22;55941;50.800;4.342;2023-06-10T01:56:19;22.40;78.80
34833;DHT22;55941;50.800;4.342;2023-06-10T01:58:48;22.40;79.20
34833;DHT22;55941;50.800;4.342;2023-06-10T02:01:14;22.40;79.50
34833;DHT22;55941;50.800;4.342;2023-06-10T02:03:40;22.30;79.30
34833;DHT22;55941;50.800;4.342;2023-06-10T02:06:07;22.40;79.60
34833;DHT22;55941;50.800;4.342;2023-06-10T02:08:33;22.30;80.00
34833;DHT22;55941;50.800;4.342;2023-06-10T02:10:58;22.30;80.20
34833;DHT22;55941;50.800;4.342;2023-06-10T02:13:24;22.30;80.00
34833;DHT22;55941;50.800;4.342;2023-06-10T02:15:49;22.30;80.50
34833;DHT22;55941;50.800;4.342;2023-06-10T02:18:15;22.10;81.10
34833;DHT22;55941;50.800;4.342;2023-06-10T02:20:41;22.00;81.50
34833;DHT22;55941;50.800;4.342;2023-06-10T02:23:06;21.90;81.90
34833;DHT22;55941;50.800;4.342;2023-06-10T02:25:32;21.90;82.20
34833;DHT22;55941;50.800;4.342;2023-06-10T02:27:58;22.00;81.90
34833;DHT22;55941;50.800;4.342;2023-06-10T02:30:23;22.00;81.60
34833;DHT22;55941;50.800;4.342;2023-06-10T02:32:49;22.00;81.60
34833;DHT22;55941;50.800;4.342;2023-06-10T02:35:17;22.00;81.70
34833;DHT22;55941;50.800;4.342;2023-06-10T02:37:43;22.00;81.60
34833;DHT22;55941;50.800;4.342;2023-06-10T02:40:09;22.00;81.60
34833;DHT22;55941;50.800;4.342;2023-06-10T02:42:36;22.00;81.90
34833;DHT22;55941;50.800;4.342;2023-06-10T02:45:03;21.90;81.60
34833;DHT22;55941;50.800;4.342;2023-06-10T02:47:29;21.90;81.80
34833;DHT22;55941;50.800;4.342;2023-06-10T02:49:55;21.90;82.10
34833;DHT22;55941;50.800;4.342;2023-06-10T02:52:20;21.80;82.60
34833;DHT22;55941;50.800;4.342;2023-06-10T02:54:46;21.70;82.60
34833;DHT22;55941;50.800;4.342;2023-06-10T02:57:12;21.70;82.80
34833;DHT22;55941;50.800;4.342;2023-06-10T02:59:40;21.80;83.10
34833;DHT22;55941;50.800;4.342;2023-06-10T03:02:06;21.80;83.00
34833;DHT22;55941;50.800;4.342;2023-06-10T03:04:32;21.90;82.70
34833;DHT22;55941;50.800;4.342;2023-06-10T03:06:58;21.90;82.80
34833;DHT22;55941;50.800;4.342;2023-06-10T03:09:25;21.60;83.10
34833;DHT22;55941;50.800;4.342;2023-06-10T03:11:51;21.60;83.40
34833;DHT22;55941;50.800;4.342;2023-06-10T03:14:17;21.60;84.00
34833;DHT22;55941;50.800;4.342;2023-06-10T03:16:42;21.60;84.60
34833;DHT22;55941;50.800;4.342;2023-06-10T03:19:09;21.50;84.70
34833;DHT22;55941;50.800;4.342;2023-06-10T03:21:35;21.40;85.10
34833;DHT22;55941;50.800;4.342;2023-06-10T03:24:03;21.50;85.00
34833;DHT22;55941;50.800;4.342;2023-06-10T03:26:29;21.50;85.00
34833;DHT22;55941;50.800;4.342;2023-06-10T03:28:54;21.50;85.10
34833;DHT22;55941;50.800;4.342;2023-06-10T03:31:20;21.40;85.90
34833;DHT22;55941;50.800;4.342;2023-06-10T03:33:46;21.40;86.10
34833;DHT22;55941;50.800;4.342;2023-06-10T03:36:11;21.50;85.90
34833;DHT22;55941;50.800;4.342;2023-06-10T03:38:38;21.50;85.90
34833;DHT22;55941;50.800;4.342;2023-06-10T03:41:03;21.50;85.90
34833;DHT22;55941;50.800;4.342;2023-06-10T03:43:29;21.50;85.90
34833;DHT22;55941;50.800;4.342;2023-06-10T03:45:56;21.50;86.10
34833;DHT22;55941;50.800;4.342;2023-06-10T03:48:22;21.40;86.40
34833;DHT22;55941;50.800;4.342;2023-06-10T03:50:47;21.40;86.70
34833;DHT22;55941;50.800;4.342;2023-06-10T03:53:16;21.30;87.10
34833;DHT22;55941;50.800;4.342;2023-06-10T03:55:42;21.30;87.20
34833;DHT22;55941;50.800;4.342;2023-06-10T03:58:07;21.30;87.30
34833;DHT22;55941;50.800;4.342;2023-06-10T04:00:33;21.30;87.30
34833;DHT22;55941;50.800;4.342;2023-06-10T04:03:07;21.30;87.50
34833;DHT22;55941;50.800;4.342;2023-06-10T04:05:34;21.30;87.60
34833;DHT22;55941;50.800;4.342;2023-06-10T04:08:01;21.30;87.40
34833;DHT22;55941;50.800;4.342;2023-06-10T04:10:28;21.40;87.70
34833;DHT22;55941;50.800;4.342;2023-06-10T04:12:53;21.30;87.90
34833;DHT22;55941;50.800;4.342;2023-06-10T04:15:19;21.30;88.30
34833;DHT22;55941;50.800;4.342;2023-06-10T04:17:45;21.40;88.20
34833;DHT22;55941;50.800;4.342;2023-06-10T04:20:11;21.30;88.30
34833;DHT22;55941;50.800;4.342;2023-06-10T04:22:36;21.30;88.50
34833;DHT22;55941;50.800;4.342;2023-06-10T04:25:02;21.30;88.80
34833;DHT22;55941;50.800;4.342;2023-06-10T04:27:29;21.20;89.20
34833;DHT22;55941;50.800;4.342;2023-06-10T04:29:54;21.30;89.50
34833;DHT22;55941;50.800;4.342;2023-06-10T04:32:20;21.30;89.50
34833;DHT22;55941;50.800;4.342;2023-06-10T04:34:49;21.30;90.00
34833;DHT22;55941;50.800;4.342;2023-06-10T04:37:14;21.30;90.00
34833;DHT22;55941;50.800;4.342;2023-06-10T04:39:40;21.20;90.10
34833;DHT22;55941;50.800;4.342;2023-06-10T04:42:07;21.20;90.50
34833;DHT22;55941;50.800;4.342;2023-06-10T04:44:36;21.20;90.20
34833;DHT22;55941;50.800;4.342;2023-06-10T04:47:02;21.20;90.40
34833;DHT22;55941;50.800;4.342;2023-06-10T04:49:28;21.30;90.30
34833;DHT22;55941;50.800;4.342;2023-06-10T04:51:55;21.20;90.60
34833;DHT22;55941;50.800;4.342;2023-06-10T04:54:20;21.20;90.50
34833;DHT22;55941;50.800;4.342;2023-06-10T04:56:46;21.30;90.70
34833;DHT22;55941;50.800;4.342;2023-06-10T04:59:12;21.30;90.70
34833;DHT22;55941;50.800;4.342;2023-06-10T05:01:39;21.30;90.70
34833;DHT22;55941;50.800;4.342;2023-06-10T05:04:05;21.40;90.70
34833;DHT22;55941;50.800;4.342;2023-06-10T05:06:31;21.60;90.70
34833;DHT22;55941;50.800;4.342;2023-06-10T05:08:56;21.80;90.10
34833;DHT22;55941;50.800;4.342;2023-06-10T05:11:22;21.90;90.00
34833;DHT22;55941;50.800;4.342;2023-06-10T05:13:47;21.90;90.10
34833;DHT22;55941;50.800;4.342;2023-06-10T05:16:14;22.00;90.20
34833;DHT22;55941;50.800;4.342;2023-06-10T05:18:40;22.00;90.00
34833;DHT22;55941;50.800;4.342;2023-06-10T05:21:07;22.10;89.90
34833;DHT22;55941;50.800;4.342;2023-06-10T05:23:33;22.20;89.70
34833;DHT22;55941;50.800;4.342;2023-06-10T05:25:59;22.30;89.00
34833;DHT22;55941;50.800;4.342;2023-06-10T05:28:25;22.40;88.80
34833;DHT22;55941;50.800;4.342;2023-06-10T05:30:51;22.50;88.50
34833;DHT22;55941;50.800;4.342;2023-06-10T05:33:17;22.50;88.50
34833;DHT22;55941;50.800;4.342;2023-06-10T05:35:43;22.70;88.10
34833;DHT22;55941;50.800;4.342;2023-06-10T05:38:09;22.70;87.80
34833;DHT22;55941;50.800;4.342;2023-06-10T05:40:35;22.70;88.10
34833;DHT22;55941;50.800;4.342;2023-06-10T05:43:00;22.70;87.60
34833;DHT22;55941;50.800;4.342;2023-06-10T05:45:27;22.60;88.70
34833;DHT22;55941;50.800;4.342;2023-06-10T05:47:53;22.50;88.80
34833;DHT22;55941;50.800;4.342;2023-06-10T05:50:18;22.70;88.60
34833;DHT22;55941;50.800;4.342;2023-06-10T05:52:44;22.80;88.70
34833;DHT22;55941;50.800;4.342;2023-06-10T05:55:10;22.70;88.70
34833;DHT22;55941;50.800;4.342;2023-06-10T05:57:36;22.70;88.70
34833;DHT22;55941;50.800;4.342;2023-06-10T06:00:01;22.70;89.00
34833;DHT22;55941;50.800;4.342;2023-06-10T06:02:27;22.70;89.50
34833;DHT22;55941;50.800;4.342;2023-06-10T06:04:54;22.80;90.00
34833;DHT22;55941;50.800;4.342;2023-06-10T06:07:19;22.70;89.80
34833;DHT22;55941;50.800;4.342;2023-06-10T06:09:46;22.70;90.00
34833;DHT22;55941;50.800;4.342;2023-06-10T06:12:12;22.60;90.20
34833;DHT22;55941;50.800;4.342;2023-06-10T06:14:40;22.70;90.20
34833;DHT22;55941;50.800;4.342;2023-06-10T06:17:06;22.80;89.90
34833;DHT22;55941;50.800;4.342;2023-06-10T06:19:35;23.00;89.70
34833;DHT22;55941;50.800;4.342;2023-06-10T06:22:01;22.90;89.50
34833;DHT22;55941;50.800;4.342;2023-06-10T06:24:28;22.70;90.00
34833;DHT22;55941;50.800;4.342;2023-06-10T06:26:54;22.80;90.10
34833;DHT22;55941;50.800;4.342;2023-06-10T06:29:20;23.00;89.50
34833;DHT22;55941;50.800;4.342;2023-06-10T06:31:46;23.10;88.70
34833;DHT22;55941;50.800;4.342;2023-06-10T06:34:11;23.20;88.40
34833;DHT22;55941;50.800;4.342;2023-06-10T06:36:37;23.20;88.60
34833;DHT22;55941;50.800;4.342;2023-06-10T06:39:02;23.20;88.80
34833;DHT22;55941;50.800;4.342;2023-06-10T06:41:29;23.40;88.70
34833;DHT22;55941;50.800;4.342;2023-06-10T06:43:55;23.50;88.20
34833;DHT22;55941;50.800;4.342;2023-06-10T06:46:20;23.50;88.60
34833;DHT22;55941;50.800;4.342;2023-06-10T06:48:47;23.50;88.50
34833;DHT22;55941;50.800;4.342;2023-06-10T06:51:13;23.70;88.30
34833;DHT22;55941;50.800;4.342;2023-06-10T06:53:39;23.70;88.30
34833;DHT22;55941;50.800;4.342;2023-06-10T06:56:13;23.70;88.60
34833;DHT22;55941;50.800;4.342;2023-06-10T06:58:38;23.70;88.20
34833;DHT22;55941;50.800;4.342;2023-06-10T07:01:05;23.70;87.70
34833;DHT22;55941;50.800;4.342;2023-06-10T07:03:31;23.80;87.80
34833;DHT22;55941;50.800;4.342;2023-06-10T07:05:57;23.80;87.10
34833;DHT22;55941;50.800;4.342;2023-06-10T07:08:23;23.90;86.50
34833;DHT22;55941;50.800;4.342;2023-06-10T07:10:48;24.00;86.60
34833;DHT22;55941;50.800;4.342;2023-06-10T07:13:14;24.30;86.80
34833;DHT22;55941;50.800;4.342;2023-06-10T07:15:40;24.20;85.30
34833;DHT22;55941;50.800;4.342;2023-06-10T07:18:06;24.30;84.60
34833;DHT22;55941;50.800;4.342;2023-06-10T07:20:31;24.40;84.20
34833;DHT22;55941;50.800;4.342;2023-06-10T07:22:57;24.50;84.80
34833;DHT22;55941;50.800;4.342;2023-06-10T07:25:23;24.50;83.70
34833;DHT22;55941;50.800;4.342;2023-06-10T07:27:49;24.50;83.80
34833;DHT22;55941;50.800;4.342;2023-06-10T07:30:15;24.50;82.70
34833;DHT22;55941;50.800;4.342;2023-06-10T07:32:40;24.60;82.60
34833;DHT22;55941;50.800;4.342;2023-06-10T07:35:09;24.60;83.50
34833;DHT22;55941;50.800;4.342;2023-06-10T07:37:36;24.70;84.20
34833;DHT22;55941;50.800;4.342;2023-06-10T07:40:02;24.90;83.80
34833;DHT22;55941;50.800;4.342;2023-06-10T07:42:29;25.00;82.90
34833;DHT22;55941;50.800;4.342;2023-06-10T07:44:55;25.00;82.60
34833;DHT22;55941;50.800;4.342;2023-06-10T07:47:20;25.10;81.70
34833;DHT22;55941;50.800;4.342;2023-06-10T07:49:46;25.10;81.00
34833;DHT22;55941;50.800;4.342;2023-06-10T07:52:12;25.10;82.00
34833;DHT22;55941;50.800;4.342;2023-06-10T07:54:37;25.10;82.10
34833;DHT22;55941;50.800;4.342;2023-06-10T07:57:03;25.10;81.70
34833;DHT22;55941;50.800;4.342;2023-06-10T07:59:29;25.20;82.20
34833;DHT22;55941;50.800;4.342;2023-06-10T08:01:54;25.30;81.60
34833;DHT22;55941;50.800;4.342;2023-06-10T08:04:20;25.50;81.30
34833;DHT22;55941;50.800;4.342;2023-06-10T08:06:45;25.60;80.60
34833;DHT22;55941;50.800;4.342;2023-06-10T08:09:11;25.50;80.30
34833;DHT22;55941;50.800;4.342;2023-06-10T08:11:38;25.60;80.10
34833;DHT22;55941;50.800;4.342;2023-06-10T08:14:07;25.80;80.20
34833;DHT22;55941;50.800;4.342;2023-06-10T08:16:34;25.80;80.50
34833;DHT22;55941;50.800;4.342;2023-06-10T08:19:03;26.00;79.30
34833;DHT22;55941;50.800;4.342;2023-06-10T08:21:29;26.10;79.40
34833;DHT22;55941;50.800;4.342;2023-06-10T08:23:54;26.20;79.10
34833;DHT22;55941;50.800;4.342;2023-06-10T08:26:23;26.30;77.80
34833;DHT22;55941;50.800;4.342;2023-06-10T08:28:50;26.30;77.90
34833;DHT22;55941;50.800;4.342;2023-06-10T08:31:19;26.30;78.10
34833;DHT22;55941;50.800;4.342;2023-06-10T08:33:44;26.40;76.60
34833;DHT22;55941;50.800;4.342;2023-06-10T08:36:12;26.50;77.20
34833;DHT22;55941;50.800;4.342;2023-06-10T08:38:39;26.40;78.00
34833;DHT22;55941;50.800;4.342;2023-06-10T08:41:07;26.40;77.60
34833;DHT22;55941;50.800;4.342;2023-06-10T08:43:48;26.40;78.40
34833;DHT22;55941;50.800;4.342;2023-06-10T08:46:20;26.70;78.40
34833;DHT22;55941;50.800;4.342;2023-06-10T08:48:49;26.80;77.50
34833;DHT22;55941;50.800;4.342;2023-06-10T08:51:20;26.80;76.70
34833;DHT22;55941;50.800;4.342;2023-06-10T08:54:01;26.90;77.00
34833;DHT22;55941;50.800;4.342;2023-06-10T08:56:28;26.90;76.50
34833;DHT22;55941;50.800;4.342;2023-06-10T08:58:56;27.00;77.50
34833;DHT22;55941;50.800;4.342;2023-06-10T09:01:25;27.00;76.80
34833;DHT22;55941;50.800;4.342;2023-06-10T09:03:52;27.10;76.60
34833;DHT22;55941;50.800;4.342;2023-06-10T09:06:19;27.10;76.00
34833;DHT22;55941;50.800;4.342;2023-06-10T09:08:45;27.20;76.00
34833;DHT22;55941;50.800;4.342;2023-06-10T09:11:12;27.30;76.40
34833;DHT22;55941;50.800;4.342;2023-06-10T09:13:40;27.30;75.20
34833;DHT22;55941;50.800;4.342;2023-06-10T09:16:06;27.40;75.60
34833;DHT22;55941;50.800;4.342;2023-06-10T09:18:34;27.60;74.90
34833;DHT22;55941;50.800;4.342;2023-06-10T09:21:02;27.70;74.00
34833;DHT22;55941;50.800;4.342;2023-06-10T09:23:30;27.80;74.20
34833;DHT22;55941;50.800;4.342;2023-06-10T09:25:59;27.80;74.20
34833;DHT22;55941;50.800;4.342;2023-06-10T09:28:26;27.90;73.50
34833;DHT22;55941;50.800;4.342;2023-06-10T09:31:03;28.00;73.80
34833;DHT22;55941;50.800;4.342;2023-06-10T09:33:31;28.00;73.50
34833;DHT22;55941;50.800;4.342;2023-06-10T09:36:01;28.00;73.00
34833;DHT22;55941;50.800;4.342;2023-06-10T09:38:34;28.10;73.60
34833;DHT22;55941;50.800;4.342;2023-06-10T09:41:00;28.10;74.00
34833;DHT22;55941;50.800;4.342;2023-06-10T09:43:43;28.30;72.50
34833;DHT22;55941;50.800;4.342;2023-06-10T09:46:17;28.40;71.50
34833;DHT22;55941;50.800;4.342;2023-06-10T09:48:45;28.50;70.90
34833;DHT22;55941;50.800;4.342;2023-06-10T09:51:13;28.50;70.20
34833;DHT22;55941;50.800;4.342;2023-06-10T09:53:42;28.50;70.30
34833;DHT22;55941;50.800;4.342;2023-06-10T09:56:11;28.60;70.00
34833;DHT22;55941;50.800;4.342;2023-06-10T09:58:40;28.60;70.90
34833;DHT22;55941;50.800;4.342;2023-06-10T10:01:11;28.70;71.20
34833;DHT22;55941;50.800;4.342;2023-06-10T10:03:51;28.80;69.20
34833;DHT22;55941;50.800;4.342;2023-06-10T10:06:19;28.90;68.50
34833;DHT22;55941;50.800;4.342;2023-06-10T10:08:49;29.00;67.30
34833;DHT22;55941;50.800;4.342;2023-06-10T10:11:19;29.10;65.80
34833;DHT22;55941;50.800;4.342;2023-06-10T10:13:52;29.30;64.30
34833;DHT22;55941;50.800;4.342;2023-06-10T10:16:23;29.10;65.30
34833;DHT22;55941;50.800;4.342;2023-06-10T10:19:28;29.20;66.00
34833;DHT22;55941;50.800;4.342;2023-06-10T10:22:03;29.30;66.20
34833;DHT22;55941;50.800;4.342;2023-06-10T10:24:49;29.50;65.90
34833;DHT22;55941;50.800;4.342;2023-06-10T10:27:54;29.70;63.10
34833;DHT22;55941;50.800;4.342;2023-06-10T10:30:17;29.70;62.50
34833;DHT22;55941;50.800;4.342;2023-06-10T10:32:56;29.70;62.00
34833;DHT22;55941;50.800;4.342;2023-06-10T10:35:26;29.90;62.60
34833;DHT22;55941;50.800;4.342;2023-06-10T10:37:54;30.00;62.50
34833;DHT22;55941;50.800;4.342;2023-06-10T10:40:25;30.20;61.90
34833;DHT22;55941;50.800;4.342;2023-06-10T10:42:56;30.30;59.30
34833;DHT22;55941;50.800;4.342;2023-06-10T10:45:27;30.30;57.70
34833;DHT22;55941;50.800;4.342;2023-06-10T10:47:55;30.40;58.20
34833;DHT22;55941;50.800;4.342;2023-06-10T10:50:25;30.60;57.80
34833;DHT22;55941;50.800;4.342;2023-06-10T10:53:01;30.50;58.00
34833;DHT22;55941;50.800;4.342;2023-06-10T10:55:31;30.50;58.40
34833;DHT22;55941;50.800;4.342;2023-06-10T10:58:07;30.70;58.40
34833;DHT22;55941;50.800;4.342;2023-06-10T11:00:37;30.80;56.20
34833;DHT22;55941;50.800;4.342;2023-06-10T11:03:06;31.10;55.60
34833;DHT22;55941;50.800;4.342;2023-06-10T11:05:41;31.40;54.70
34833;DHT22;55941;50.800;4.342;2023-06-10T11:08:10;31.80;53.40
34833;DHT22;55941;50.800;4.342;2023-06-10T11:10:51;31.90;52.40
34833;DHT22;55941;50.800;4.342;2023-06-10T11:13:20;32.10;52.20
34833;DHT22;55941;50.800;4.342;2023-06-10T11:15:57;32.40;52.90
34833;DHT22;55941;50.800;4.342;2023-06-10T11:18:30;32.70;51.60
34833;DHT22;55941;50.800;4.342;2023-06-10T11:21:03;32.80;50.00
34833;DHT22;55941;50.800;4.342;2023-06-10T11:23:38;33.00;49.80
34833;DHT22;55941;50.800;4.342;2023-06-10T11:29:05;33.60;49.60
34833;DHT22;55941;50.800;4.342;2023-06-10T11:31:40;33.50;49.10
34833;DHT22;55941;50.800;4.342;2023-06-10T11:34:06;33.90;50.20
34833;DHT22;55941;50.800;4.342;2023-06-10T11:36:41;33.70;49.90
34833;DHT22;55941;50.800;4.342;2023-06-10T11:39:09;34.20;49.20
34833;DHT22;55941;50.800;4.342;2023-06-10T11:41:39;34.50;46.40
34833;DHT22;55941;50.800;4.342;2023-06-10T11:44:14;34.40;45.60
34833;DHT22;55941;50.800;4.342;2023-06-10T11:46:44;34.40;45.90
34833;DHT22;55941;50.800;4.342;2023-06-10T11:49:14;34.60;45.30
34833;DHT22;55941;50.800;4.342;2023-06-10T11:51:41;34.30;46.10
34833;DHT22;55941;50.800;4.342;2023-06-10T11:54:17;34.70;46.70
34833;DHT22;55941;50.800;4.342;2023-06-10T11:56:46;35.20;47.00
34833;DHT22;55941;50.800;4.342;2023-06-10T11:59:13;35.80;46.30
34833;DHT22;55941;50.800;4.342;2023-06-10T12:01:45;36.30;44.90
34833;DHT22;55941;50.800;4.342;2023-06-10T12:04:15;36.60;43.00
34833;DHT22;55941;50.800;4.342;2023-06-10T12:06:43;37.00;42.20
34833;DHT22;55941;50.800;4.342;2023-06-10T12:09:29;37.10;42.40
34833;DHT22;55941;50.800;4.342;2023-06-10T12:12:03;37.60;43.20
34833;DHT22;55941;50.800;4.342;2023-06-10T12:17:21;38.40;41.70
34833;DHT22;55941;50.800;4.342;2023-06-10T12:19:47;38.60;41.10
34833;DHT22;55941;50.800;4.342;2023-06-10T12:22:13;38.10;40.80
34833;DHT22;55941;50.800;4.342;2023-06-10T12:25:06;39.10;41.20
34833;DHT22;55941;50.800;4.342;2023-06-10T12:27:36;39.60;40.60
34833;DHT22;55941;50.800;4.342;2023-06-10T12:30:03;39.50;39.60
34833;DHT22;55941;50.800;4.342;2023-06-10T12:35:06;39.50;39.80
34833;DHT22;55941;50.800;4.342;2023-06-10T12:37:32;40.10;38.50
34833;DHT22;55941;50.800;4.342;2023-06-10T12:40:02;39.40;39.60
34833;DHT22;55941;50.800;4.342;2023-06-10T12:42:29;38.40;40.00
34833;DHT22;55941;50.800;4.342;2023-06-10T12:44:58;38.20;40.50
34833;DHT22;55941;50.800;4.342;2023-06-10T12:47:36;38.80;40.20
34833;DHT22;55941;50.800;4.342;2023-06-10T12:50:05;39.50;39.80
34833;DHT22;55941;50.800;4.342;2023-06-10T12:52:31;39.90;38.90
34833;DHT22;55941;50.800;4.342;2023-06-10T12:54:58;40.40;38.40
34833;DHT22;55941;50.800;4.342;2023-06-10T12:57:24;40.30;37.60
34833;DHT22;55941;50.800;4.342;2023-06-10T12:59:50;40.40;37.40
34833;DHT22;55941;50.800;4.342;2023-06-10T13:02:18;41.20;37.20
34833;DHT22;55941;50.800;4.342;2023-06-10T13:04:45;40.80;36.70
34833;DHT22;55941;50.800;4.342;2023-06-10T13:07:11;40.90;37.60
34833;DHT22;55941;50.800;4.342;2023-06-10T13:09:37;40.80;37.60
34833;DHT22;55941;50.800;4.342;2023-06-10T13:12:03;40.50;37.20
34833;DHT22;55941;50.800;4.342;2023-06-10T13:14:30;40.50;37.70
34833;DHT22;55941;50.800;4.342;2023-06-10T13:16:56;40.20;37.10
34833;DHT22;55941;50.800;4.342;2023-06-10T13:19:21;40.40;36.70
34833;DHT22;55941;50.800;4.342;2023-06-10T13:21:48;40.50;37.40
34833;DHT22;55941;50.800;4.342;2023-06-10T13:24:13;40.50;37.00
34833;DHT22;55941;50.800;4.342;2023-06-10T13:26:39;41.10;36.40
34833;DHT22;55941;50.800;4.342;2023-06-10T13:29:05;41.20;36.10
34833;DHT22;55941;50.800;4.342;2023-06-10T13:31:30;41.40;35.90
34833;DHT22;55941;50.800;4.342;2023-06-10T13:33:57;41.00;35.40
34833;DHT22;55941;50.800;4.342;2023-06-10T13:36:23;41.00;35.70
34833;DHT22;55941;50.800;4.342;2023-06-10T13:38:49;41.50;35.80
34833;DHT22;55941;50.800;4.342;2023-06-10T13:41:15;41.40;35.30
34833;DHT22;55941;50.800;4.342;2023-06-10T13:43:41;40.70;34.60
34833;DHT22;55941;50.800;4.342;2023-06-10T13:46:06;41.30;34.90
34833;DHT22;55941;50.800;4.342;2023-06-10T13:48:32;41.60;35.20
34833;DHT22;55941;50.800;4.342;2023-06-10T13:50:58;41.60;35.00
34833;DHT22;55941;50.800;4.342;2023-06-10T13:53:25;41.80;34.50
34833;DHT22;55941;50.800;4.342;2023-06-10T13:55:51;42.00;33.90
34833;DHT22;55941;50.800;4.342;2023-06-10T13:58:17;41.80;35.60
34833;DHT22;55941;50.800;4.342;2023-06-10T14:00:42;41.90;34.90
34833;DHT22;55941;50.800;4.342;2023-06-10T14:03:08;42.00;34.00
34833;DHT22;55941;50.800;4.342;2023-06-10T14:05:34;42.40;33.20
34833;DHT22;55941;50.800;4.342;2023-06-10T14:08:00;42.80;33.90
34833;DHT22;55941;50.800;4.342;2023-06-10T14:10:25;42.70;31.80
34833;DHT22;55941;50.800;4.342;2023-06-10T14:12:51;42.60;32.80
34833;DHT22;55941;50.800;4.342;2023-06-10T14:15:17;42.50;32.20
34833;DHT22;55941;50.800;4.342;2023-06-10T14:17:42;42.60;32.50
34833;DHT22;55941;50.800;4.342;2023-06-10T14:20:08;42.90;32.80
34833;DHT22;55941;50.800;4.342;2023-06-10T14:22:36;42.80;32.10
34833;DHT22;55941;50.800;4.342;2023-06-10T14:25:02;42.70;32.10
34833;DHT22;55941;50.800;4.342;2023-06-10T14:27:28;42.70;31.50
34833;DHT22;55941;50.800;4.342;2023-06-10T14:29:53;42.60;31.40
34833;DHT22;55941;50.800;4.342;2023-06-10T14:32:19;42.10;31.50
34833;DHT22;55941;50.800;4.342;2023-06-10T14:34:45;41.40;32.00
34833;DHT22;55941;50.800;4.342;2023-06-10T14:37:12;41.50;32.20
34833;DHT22;55941;50.800;4.342;2023-06-10T14:39:38;41.50;32.30
34833;DHT22;55941;50.800;4.342;2023-06-10T14:42:04;41.40;33.00
34833;DHT22;55941;50.800;4.342;2023-06-10T14:44:30;41.50;32.70
34833;DHT22;55941;50.800;4.342;2023-06-10T14:46:56;41.80;32.30
34833;DHT22;55941;50.800;4.342;2023-06-10T14:49:22;41.90;32.30
34833;DHT22;55941;50.800;4.342;2023-06-10T14:51:48;42.10;32.20
34833;DHT22;55941;50.800;4.342;2023-06-10T14:54:15;42.50;31.90
34833;DHT22;55941;50.800;4.342;2023-06-10T14:56:41;42.40;31.40
34833;DHT22;55941;50.800;4.342;2023-06-10T14:59:06;42.30;32.30
34833;DHT22;55941;50.800;4.342;2023-06-10T15:01:32;42.20;32.10
34833;DHT22;55941;50.800;4.342;2023-06-10T15:03:58;42.20;32.00
34833;DHT22;55941;50.800;4.342;2023-06-10T15:06:23;42.20;31.50
34833;DHT22;55941;50.800;4.342;2023-06-10T15:08:49;42.20;31.40
34833;DHT22;55941;50.800;4.342;2023-06-10T15:11:15;42.10;31.40
34833;DHT22;55941;50.800;4.342;2023-06-10T15:13:41;42.00;31.80
34833;DHT22;55941;50.800;4.342;2023-06-10T15:16:07;42.00;31.10
34833;DHT22;55941;50.800;4.342;2023-06-10T15:18:33;41.90;31.60
34833;DHT22;55941;50.800;4.342;2023-06-10T15:20:58;41.80;31.70
34833;DHT22;55941;50.800;4.342;2023-06-10T15:23:24;42.00;31.40
34833;DHT22;55941;50.800;4.342;2023-06-10T15:25:50;42.20;30.60
34833;DHT22;55941;50.800;4.342;2023-06-10T15:28:16;42.30;30.40
34833;DHT22;55941;50.800;4.342;2023-06-10T15:30:42;42.00;31.50
34833;DHT22;55941;50.800;4.342;2023-06-10T15:33:08;42.10;31.90
34833;DHT22;55941;50.800;4.342;2023-06-10T15:35:35;41.90;31.20
34833;DHT22;55941;50.800;4.342;2023-06-10T15:38:00;41.70;31.50
34833;DHT22;55941;50.800;4.342;2023-06-10T15:40:26;41.50;31.80
34833;DHT22;55941;50.800;4.342;2023-06-10T15:42:52;41.60;31.20
34833;DHT22;55941;50.800;4.342;2023-06-10T15:45:18;41.70;31.90
34833;DHT22;55941;50.800;4.342;2023-06-10T15:47:43;41.50;31.80
34833;DHT22;55941;50.800;4.342;2023-06-10T15:50:12;41.50;32.00